createdAt,value
2017-09-20T00:00:19.889Z,82.87
2017-09-20T00:01:19.883Z,83.35
2017-09-20T00:02:19.896Z,82.87
2017-09-20T00:03:19.888Z,82.40
2017-09-20T00:04:19.880Z,82.78
2017-09-20T00:05:19.880Z,82.59
2017-09-20T00:06:19.873Z,82.68
2017-09-20T00:07:19.875Z,82.59
2017-09-20T00:08:19.873Z,82.49
2017-09-20T00:09:19.885Z,82.40
2017-09-20T00:10:19.873Z,82.40
2017-09-20T00:11:19.867Z,82.01
2017-09-20T00:12:19.866Z,82.11
2017-09-20T00:13:19.863Z,82.20
2017-09-20T00:14:19.866Z,82.30
2017-09-20T00:15:19.863Z,82.78
2017-09-20T00:16:19.870Z,82.68
2017-09-20T00:17:19.863Z,82.97
2017-09-20T00:18:19.923Z,82.20
2017-09-20T00:19:19.856Z,82.20
2017-09-20T00:20:19.855Z,82.11
2017-09-20T00:21:19.852Z,81.73
2017-09-20T00:22:19.850Z,81.44
2017-09-20T00:23:19.854Z,82.30
2017-09-20T00:24:19.842Z,82.40
2017-09-20T00:25:19.839Z,82.30
2017-09-20T00:26:19.847Z,82.01
2017-09-20T00:27:19.863Z,82.20
2017-09-20T00:28:19.843Z,82.01
2017-09-20T00:29:19.839Z,82.01
2017-09-20T00:30:19.850Z,82.01
2017-09-20T00:31:19.838Z,82.40
2017-09-20T00:32:19.835Z,82.20
2017-09-20T00:33:19.837Z,81.82
2017-09-20T00:34:19.825Z,82.20
2017-09-20T00:35:19.832Z,81.44
2017-09-20T00:36:19.830Z,81.63
2017-09-20T00:37:19.828Z,82.20
2017-09-20T00:38:19.832Z,81.82
2017-09-20T00:39:19.833Z,82.11
2017-09-20T00:40:19.895Z,82.01
2017-09-20T00:41:19.821Z,82.59
2017-09-20T00:42:19.820Z,82.20
2017-09-20T00:43:19.818Z,82.68
2017-09-20T00:44:19.818Z,82.49
2017-09-20T00:45:19.814Z,82.68
2017-09-20T00:46:19.816Z,82.40
2017-09-20T00:47:19.814Z,82.68
2017-09-20T00:48:19.811Z,82.59
2017-09-20T00:49:19.809Z,82.59
2017-09-20T00:50:19.809Z,82.68
2017-09-20T00:51:19.807Z,82.59
2017-09-20T00:52:19.805Z,82.78
2017-09-20T00:53:19.804Z,82.78
2017-09-20T00:54:19.801Z,82.49
2017-09-20T00:55:19.800Z,82.49
2017-09-20T00:56:19.800Z,82.68
2017-09-20T00:57:19.798Z,82.59
2017-09-20T00:58:19.797Z,82.87
2017-09-20T00:59:19.793Z,83.35
2017-09-20T01:00:19.791Z,83.25
2017-09-20T01:01:19.793Z,82.68
2017-09-20T01:02:19.787Z,82.87
2017-09-20T01:03:19.787Z,82.87
2017-09-20T01:04:19.790Z,83.54
2017-09-20T01:05:19.785Z,83.54
2017-09-20T01:06:19.781Z,83.25
2017-09-20T01:07:19.783Z,82.97
2017-09-20T01:08:19.778Z,83.25
2017-09-20T01:09:19.778Z,83.35
2017-09-20T01:10:19.769Z,83.35
2017-09-20T01:11:19.774Z,83.25
2017-09-20T01:12:19.774Z,83.64
2017-09-20T01:13:19.768Z,82.97
2017-09-20T01:14:19.768Z,83.35
2017-09-20T01:15:19.767Z,83.25
2017-09-20T01:16:19.764Z,83.35
2017-09-20T01:17:19.765Z,83.64
2017-09-20T01:18:19.761Z,83.25
2017-09-20T01:19:19.762Z,83.44
2017-09-20T01:20:19.760Z,83.44
2017-09-20T01:21:19.756Z,83.44
2017-09-20T01:22:19.755Z,83.44
2017-09-20T01:23:19.754Z,83.25
2017-09-20T01:24:19.754Z,83.44
2017-09-20T01:25:19.749Z,83.06
2017-09-20T01:26:19.749Z,83.54
2017-09-20T01:27:19.755Z,83.54
2017-09-20T01:28:19.748Z,83.25
2017-09-20T01:29:19.749Z,83.54
2017-09-20T01:30:19.742Z,83.54
2017-09-20T01:31:19.740Z,82.87
2017-09-20T01:32:19.748Z,83.64
2017-09-20T01:33:19.737Z,83.59
2017-09-20T01:34:19.735Z,83.40
2017-09-20T01:35:19.736Z,83.06
2017-09-20T01:36:19.741Z,83.12
2017-09-20T01:37:19.732Z,83.83
2017-09-20T01:38:19.728Z,83.83
2017-09-20T01:39:19.726Z,83.92
2017-09-20T01:40:19.726Z,83.40
2017-09-20T01:41:19.721Z,84.07
2017-09-20T01:42:19.720Z,83.54
2017-09-20T01:43:19.718Z,83.92
2017-09-20T01:44:19.717Z,84.07
2017-09-20T01:45:19.715Z,83.69
2017-09-20T01:46:19.712Z,83.73
2017-09-20T01:47:19.727Z,84.11
2017-09-20T01:48:19.712Z,83.44
2017-09-20T01:49:19.708Z,83.83
2017-09-20T01:50:19.706Z,83.44
2017-09-20T01:51:19.705Z,83.64
2017-09-20T01:52:19.702Z,83.64
2017-09-20T01:53:19.701Z,84.01
2017-09-20T01:54:19.699Z,83.83
2017-09-20T01:55:19.699Z,84.01
2017-09-20T01:56:19.703Z,83.44
2017-09-20T01:57:19.695Z,83.73
2017-09-20T01:58:19.691Z,83.54
2017-09-20T01:59:19.691Z,83.16
2017-09-20T02:00:19.692Z,83.54
2017-09-20T02:01:19.690Z,83.35
2017-09-20T02:02:19.683Z,83.64
2017-09-20T02:03:19.687Z,83.25
2017-09-20T02:04:19.682Z,83.35
2017-09-20T02:05:19.681Z,83.54
2017-09-20T02:06:19.682Z,83.44
2017-09-20T02:07:19.682Z,83.25
2017-09-20T02:08:19.679Z,84.01
2017-09-20T02:09:19.677Z,84.01
2017-09-20T02:10:19.675Z,83.83
2017-09-20T02:11:19.672Z,83.64
2017-09-20T02:12:19.670Z,83.73
2017-09-20T02:13:19.674Z,83.73
2017-09-20T02:14:19.664Z,83.64
2017-09-20T02:15:19.673Z,83.83
2017-09-20T02:16:19.663Z,83.06
2017-09-20T02:17:19.661Z,83.64
2017-09-20T02:18:19.664Z,84.01
2017-09-20T02:19:19.659Z,83.92
2017-09-20T02:20:19.655Z,83.92
2017-09-20T02:21:19.654Z,83.83
2017-09-20T02:22:19.648Z,83.83
2017-09-20T02:23:19.650Z,83.25
2017-09-20T02:24:19.655Z,83.83
2017-09-20T02:25:19.651Z,83.06
2017-09-20T02:26:19.644Z,83.06
2017-09-20T02:27:19.642Z,83.25
2017-09-20T02:28:19.640Z,83.25
2017-09-20T02:29:19.636Z,83.25
2017-09-20T02:30:19.640Z,83.44
2017-09-20T02:31:19.637Z,83.06
2017-09-20T02:32:19.635Z,83.64
2017-09-20T02:33:19.632Z,83.73
2017-09-20T02:34:19.632Z,83.73
2017-09-20T02:35:19.629Z,83.83
2017-09-20T02:36:19.632Z,83.83
2017-09-20T02:37:19.626Z,83.64
2017-09-20T02:38:19.630Z,84.11
2017-09-20T02:39:19.625Z,83.64
2017-09-20T02:40:19.628Z,83.83
2017-09-20T02:41:19.622Z,83.44
2017-09-20T02:42:19.624Z,84.20
2017-09-20T02:43:19.619Z,84.20
2017-09-20T02:44:19.615Z,84.11
2017-09-20T02:45:19.617Z,84.20
2017-09-20T02:46:19.612Z,84.20
2017-09-20T02:47:19.615Z,84.30
2017-09-20T02:48:19.609Z,83.92
2017-09-20T02:49:19.608Z,84.69
2017-09-20T02:50:19.599Z,84.20
2017-09-20T02:51:27.225Z,84.30
2017-09-20T02:53:13.991Z,84.69
2017-09-20T02:54:13.971Z,84.45
2017-09-20T02:56:07.356Z,84.30
2017-09-20T02:57:07.337Z,84.30
2017-09-20T02:59:01.716Z,84.40
2017-09-20T03:00:01.702Z,84.40
2017-09-20T03:01:55.082Z,84.01
2017-09-20T03:02:55.070Z,84.30
2017-09-20T03:03:55.065Z,84.20
2017-09-20T03:04:55.062Z,84.01
2017-09-20T03:05:55.058Z,84.26
2017-09-20T03:06:55.055Z,84.30
2017-09-20T03:07:55.060Z,84.11
2017-09-20T03:08:55.051Z,84.16
2017-09-20T03:09:55.051Z,84.40
2017-09-20T03:10:55.053Z,84.20
2017-09-20T03:11:55.045Z,84.40
2017-09-20T03:12:55.050Z,84.16
2017-09-20T03:13:55.047Z,84.26
2017-09-20T03:14:55.042Z,84.36
2017-09-20T03:15:55.042Z,84.49
2017-09-20T03:16:55.037Z,84.59
2017-09-20T03:17:55.038Z,84.40
2017-09-20T03:18:55.043Z,84.26
2017-09-20T03:19:55.036Z,84.97
2017-09-20T03:20:55.032Z,84.78
2017-09-20T03:21:55.033Z,84.55
2017-09-20T03:22:55.028Z,84.45
2017-09-20T03:23:55.026Z,84.45
2017-09-20T03:24:55.023Z,84.30
2017-09-20T03:25:55.028Z,84.69
2017-09-20T03:26:55.029Z,84.55
2017-09-20T03:27:55.019Z,84.49
2017-09-20T03:28:55.016Z,84.55
2017-09-20T03:29:55.015Z,84.49
2017-09-20T03:30:55.014Z,84.59
2017-09-20T03:31:55.016Z,84.69
2017-09-20T03:32:55.009Z,84.59
2017-09-20T03:33:55.009Z,84.64
2017-09-20T03:34:55.005Z,84.69
2017-09-20T03:35:55.006Z,84.30
2017-09-20T03:36:55.004Z,84.40
2017-09-20T03:37:55.004Z,84.59
2017-09-20T03:38:54.999Z,84.64
2017-09-20T03:39:55.000Z,84.49
2017-09-20T03:40:54.998Z,84.36
2017-09-20T03:41:54.997Z,84.36
2017-09-20T03:42:55.005Z,84.20
2017-09-20T03:43:54.995Z,84.49
2017-09-20T03:44:54.990Z,84.36
2017-09-20T03:45:54.988Z,84.64
2017-09-20T03:46:54.986Z,84.64
2017-09-20T03:47:54.983Z,84.69
2017-09-20T03:48:54.986Z,84.74
2017-09-20T03:49:54.981Z,84.59
2017-09-20T03:50:54.981Z,84.69
2017-09-20T03:51:54.977Z,84.55
2017-09-20T03:52:54.976Z,84.36
2017-09-20T03:53:54.977Z,85.16
2017-09-20T03:54:54.971Z,85.02
2017-09-20T03:55:54.971Z,85.12
2017-09-20T03:56:54.970Z,84.74
2017-09-20T03:57:54.967Z,85.02
2017-09-20T03:58:54.966Z,84.74
2017-09-20T03:59:54.964Z,85.31
2017-09-20T04:00:54.974Z,84.83
2017-09-20T04:01:54.961Z,84.92
2017-09-20T04:02:54.964Z,85.31
2017-09-20T04:03:54.962Z,84.83
2017-09-20T04:04:54.955Z,84.74
2017-09-20T04:05:54.954Z,84.92
2017-09-20T04:06:54.946Z,84.74
2017-09-20T04:07:54.953Z,84.92
2017-09-20T04:08:54.948Z,84.83
2017-09-20T04:09:54.947Z,84.64
2017-09-20T04:10:54.945Z,84.83
2017-09-20T04:11:54.943Z,85.12
2017-09-20T04:12:54.941Z,84.83
2017-09-20T04:13:54.939Z,85.31
2017-09-20T04:14:54.932Z,85.12
2017-09-20T04:15:54.938Z,85.12
2017-09-20T04:16:54.941Z,85.41
2017-09-20T04:17:54.931Z,85.50
2017-09-20T04:18:54.927Z,85.50
2017-09-20T04:19:54.928Z,85.50
2017-09-20T04:20:54.932Z,85.12
2017-09-20T04:21:54.923Z,85.21
2017-09-20T04:22:54.920Z,85.50
2017-09-20T04:23:54.924Z,85.69
2017-09-20T04:24:54.917Z,85.69
2017-09-20T04:25:54.926Z,85.69
2017-09-20T04:26:54.910Z,85.88
2017-09-20T04:27:54.932Z,85.60
2017-09-20T04:28:54.923Z,86.16
2017-09-20T04:29:54.909Z,85.97
2017-09-20T04:30:54.905Z,85.88
2017-09-20T04:31:54.905Z,85.78
2017-09-20T04:32:54.901Z,85.88
2017-09-20T04:33:54.903Z,85.88
2017-09-20T04:34:54.899Z,85.88
2017-09-20T04:35:54.899Z,86.36
2017-09-20T04:36:54.893Z,86.36
2017-09-20T04:37:54.894Z,86.36
2017-09-20T04:38:54.884Z,86.45
2017-09-20T04:39:54.887Z,86.36
2017-09-20T04:40:54.909Z,86.55
2017-09-20T04:41:54.896Z,86.36
2017-09-20T04:42:54.880Z,85.78
2017-09-20T04:43:54.879Z,85.88
2017-09-20T04:44:54.877Z,85.97
2017-09-20T04:45:54.892Z,85.97
2017-09-20T04:46:54.874Z,85.78
2017-09-20T04:47:54.871Z,85.97
2017-09-20T04:48:54.870Z,85.97
2017-09-20T04:49:54.866Z,85.88
2017-09-20T04:50:54.862Z,85.69
2017-09-20T04:51:54.869Z,86.07
2017-09-20T04:52:54.862Z,86.07
2017-09-20T04:53:54.858Z,86.65
2017-09-20T04:54:54.855Z,86.36
2017-09-20T04:55:54.855Z,86.55
2017-09-20T04:56:54.852Z,86.65
2017-09-20T04:57:54.850Z,86.45
2017-09-20T04:58:54.849Z,86.16
2017-09-20T04:59:54.847Z,86.55
2017-09-20T05:00:54.844Z,86.16
2017-09-20T05:01:54.845Z,86.36
2017-09-20T05:02:54.841Z,86.16
2017-09-20T05:03:54.840Z,86.26
2017-09-20T05:04:54.838Z,86.55
2017-09-20T05:05:54.835Z,86.45
2017-09-20T05:06:54.832Z,86.65
2017-09-20T05:07:54.825Z,86.45
2017-09-20T05:08:54.826Z,86.16
2017-09-20T05:09:54.835Z,86.16
2017-09-20T05:10:54.824Z,86.65
2017-09-20T05:11:54.835Z,86.45
2017-09-20T05:12:54.826Z,86.74
2017-09-20T05:13:54.819Z,86.16
2017-09-20T05:14:54.817Z,86.36
2017-09-20T05:15:54.823Z,86.74
2017-09-20T05:16:54.830Z,86.74
2017-09-20T05:17:54.811Z,87.31
2017-09-20T05:18:54.810Z,86.93
2017-09-20T05:19:54.811Z,87.40
2017-09-20T05:20:54.806Z,87.60
2017-09-20T05:21:54.799Z,87.55
2017-09-20T05:22:54.796Z,87.27
2017-09-20T05:23:54.794Z,87.36
2017-09-20T05:24:54.795Z,87.36
2017-09-20T05:25:54.801Z,87.74
2017-09-20T05:26:54.790Z,87.65
2017-09-20T05:27:54.788Z,88.12
2017-09-20T05:28:54.786Z,88.12
2017-09-20T05:29:54.827Z,88.12
2017-09-20T05:30:54.783Z,88.12
2017-09-20T05:31:54.780Z,88.12
2017-09-20T05:32:54.777Z,87.93
2017-09-20T05:33:54.775Z,88.03
2017-09-20T05:34:54.771Z,87.74
2017-09-20T05:35:54.769Z,88.07
2017-09-20T05:36:54.767Z,87.31
2017-09-20T05:37:54.772Z,87.79
2017-09-20T05:38:54.766Z,87.12
2017-09-20T05:39:54.760Z,87.60
2017-09-20T05:40:54.758Z,87.40
2017-09-20T05:41:54.754Z,87.12
2017-09-20T05:43:03.394Z,87.12
2017-09-20T05:44:48.141Z,87.31
2017-09-20T05:45:48.112Z,86.74
2017-09-20T05:47:41.510Z,86.55
2017-09-20T05:48:41.489Z,86.74
2017-09-20T05:50:35.869Z,86.93
2017-09-20T05:51:35.840Z,86.74
2017-09-20T05:53:30.304Z,86.55
2017-09-20T05:54:30.230Z,86.65
2017-09-20T05:55:30.227Z,86.83
2017-09-20T05:56:30.259Z,86.36
2017-09-20T05:57:30.224Z,86.74
2017-09-20T05:58:30.220Z,86.45
2017-09-20T05:59:30.220Z,86.45
2017-09-20T06:00:30.217Z,86.16
2017-09-20T06:01:30.224Z,85.88
2017-09-20T06:02:30.212Z,85.88
2017-09-20T06:03:30.207Z,85.73
2017-09-20T06:04:30.204Z,85.16
2017-09-20T06:05:30.220Z,84.97
2017-09-20T06:06:30.207Z,84.88
2017-09-20T06:07:30.202Z,85.16
2017-09-20T06:08:30.203Z,84.78
2017-09-20T06:09:30.201Z,84.59
2017-09-20T06:10:30.198Z,84.59
2017-09-20T06:11:30.198Z,84.40
2017-09-20T06:12:30.195Z,84.30
2017-09-20T06:13:30.198Z,84.20
2017-09-20T06:14:30.193Z,84.11
2017-09-20T06:15:30.188Z,83.35
2017-09-20T06:16:30.188Z,83.06
2017-09-20T06:17:30.183Z,83.25
2017-09-20T06:18:30.187Z,83.25
2017-09-20T06:19:30.183Z,83.20
2017-09-20T06:20:30.182Z,82.82
2017-09-20T06:21:30.182Z,82.59
2017-09-20T06:22:30.179Z,83.01
2017-09-20T06:23:30.206Z,82.78
2017-09-20T06:24:30.180Z,82.53
2017-09-20T06:25:30.176Z,82.63
2017-09-20T06:26:30.176Z,82.43
2017-09-20T06:27:30.172Z,82.15
2017-09-20T06:28:30.180Z,82.24
2017-09-20T06:29:30.170Z,81.67
2017-09-20T06:30:30.165Z,81.96
2017-09-20T06:31:30.179Z,81.67
2017-09-20T06:32:30.166Z,81.33
2017-09-20T06:33:30.165Z,80.85
2017-09-20T06:34:30.163Z,81.24
2017-09-20T06:35:30.166Z,80.66
2017-09-20T06:36:30.164Z,80.09
2017-09-20T06:37:30.159Z,80.09
2017-09-20T06:38:30.158Z,79.61
2017-09-20T06:39:30.156Z,79.80
2017-09-20T06:40:30.159Z,78.56
2017-09-20T06:41:30.162Z,78.70
2017-09-20T06:42:30.163Z,78.85
2017-09-20T06:43:30.152Z,78.85
2017-09-20T06:44:30.161Z,78.60
2017-09-20T06:45:30.155Z,78.60
2017-09-20T06:46:30.153Z,78.13
2017-09-20T06:47:30.152Z,78.22
2017-09-20T06:48:30.152Z,78.22
2017-09-20T06:49:30.169Z,78.31
2017-09-20T06:50:30.151Z,77.94
2017-09-20T06:51:30.149Z,78.31
2017-09-20T06:52:30.156Z,78.13
2017-09-20T06:53:30.160Z,78.31
2017-09-20T06:54:30.148Z,77.94
2017-09-20T06:55:30.150Z,78.09
2017-09-20T06:56:30.151Z,78.09
2017-09-20T06:57:30.148Z,78.79
2017-09-20T06:58:30.148Z,78.75
2017-09-20T06:59:30.149Z,78.56
2017-09-20T07:00:30.148Z,78.85
2017-09-20T07:01:30.149Z,79.14
2017-09-20T07:02:30.156Z,79.14
2017-09-20T07:03:30.151Z,78.56
2017-09-20T07:04:30.147Z,78.28
2017-09-20T07:05:30.146Z,78.75
2017-09-20T07:06:30.146Z,78.70
2017-09-20T07:07:30.150Z,78.47
2017-09-20T07:08:30.141Z,78.47
2017-09-20T07:09:30.147Z,78.94
2017-09-20T07:10:30.141Z,79.33
2017-09-20T07:11:30.139Z,79.80
2017-09-20T07:12:30.140Z,79.99
2017-09-20T07:13:30.146Z,80.57
2017-09-20T07:14:30.165Z,80.28
2017-09-20T07:15:30.167Z,80.47
2017-09-20T07:16:30.140Z,80.38
2017-09-20T07:17:30.139Z,80.09
2017-09-20T07:18:30.136Z,79.99
2017-09-20T07:19:30.141Z,79.90
2017-09-20T07:20:30.142Z,79.33
2017-09-20T07:21:30.143Z,79.99
2017-09-20T07:22:30.135Z,79.71
2017-09-20T07:23:30.141Z,79.71
2017-09-20T07:24:30.138Z,79.43
2017-09-20T07:25:30.152Z,80.57
2017-09-20T07:26:30.136Z,79.90
2017-09-20T07:27:30.145Z,79.23
2017-09-20T07:28:30.132Z,79.14
2017-09-20T07:29:30.134Z,79.77
2017-09-20T07:30:30.138Z,79.90
2017-09-20T07:31:30.139Z,79.52
2017-09-20T07:32:30.142Z,79.19
2017-09-20T07:33:30.130Z,79.52
2017-09-20T07:34:30.135Z,79.96
2017-09-20T07:35:30.130Z,80.05
2017-09-20T07:36:30.128Z,79.86
2017-09-20T07:37:30.123Z,79.86
2017-09-20T07:38:30.127Z,80.33
2017-09-20T07:39:30.124Z,80.33
2017-09-20T07:40:30.126Z,79.96
2017-09-20T07:41:30.128Z,80.53
2017-09-20T07:42:30.125Z,80.24
2017-09-20T07:43:30.121Z,80.53
2017-09-20T07:44:30.121Z,81.20
2017-09-20T07:45:30.117Z,81.48
2017-09-20T07:46:30.124Z,81.10
2017-09-20T07:47:30.117Z,81.48
2017-09-20T07:48:30.116Z,81.01
2017-09-20T07:49:30.122Z,81.01
2017-09-20T07:50:30.110Z,81.20
2017-09-20T07:51:30.112Z,81.20
2017-09-20T07:52:30.121Z,81.48
2017-09-20T07:53:30.106Z,81.48
2017-09-20T07:54:30.112Z,81.10
2017-09-20T07:55:30.108Z,81.38
2017-09-20T07:56:30.103Z,81.20
2017-09-20T07:57:30.148Z,81.58
2017-09-20T07:58:30.105Z,81.67
2017-09-20T07:59:30.101Z,82.15
2017-09-20T08:00:30.100Z,82.43
2017-09-20T08:01:30.103Z,82.72
2017-09-20T08:02:30.101Z,83.67
2017-09-20T08:03:30.093Z,82.91
2017-09-20T08:04:30.095Z,83.48
2017-09-20T08:05:37.742Z,83.29
2017-09-20T08:07:25.477Z,84.06
2017-09-20T08:08:25.467Z,83.96
2017-09-20T08:09:25.457Z,83.77
2017-09-20T08:10:25.454Z,83.48
2017-09-20T08:11:25.455Z,83.83
2017-09-20T08:12:25.454Z,84.01
2017-09-20T08:13:25.450Z,83.44
2017-09-20T08:14:25.451Z,83.64
2017-09-20T08:15:25.447Z,84.11
2017-09-20T08:16:25.443Z,84.20
2017-09-20T08:17:25.444Z,84.49
2017-09-20T08:18:25.443Z,84.01
2017-09-20T08:19:25.444Z,84.40
2017-09-20T08:20:25.440Z,85.16
2017-09-20T08:21:25.462Z,85.06
2017-09-20T08:22:25.441Z,84.49
2017-09-20T08:23:34.066Z,84.49
2017-09-20T08:25:18.821Z,84.25
2017-09-20T08:26:18.804Z,83.87
2017-09-20T08:28:12.198Z,83.48
2017-09-20T08:29:12.166Z,83.58
2017-09-20T08:31:05.758Z,82.34
2017-09-20T08:32:05.751Z,82.82
2017-09-20T08:33:59.321Z,82.91
2017-09-20T08:34:59.303Z,83.58
2017-09-20T08:36:53.684Z,83.77
2017-09-20T08:37:53.664Z,84.06
2017-09-20T08:39:47.052Z,83.25
2017-09-20T08:40:47.031Z,83.20
2017-09-20T08:42:40.614Z,83.29
2017-09-20T08:43:40.597Z,83.29
2017-09-20T08:45:35.840Z,83.29
2017-09-20T08:46:35.819Z,83.01
2017-09-20T08:48:29.203Z,82.72
2017-09-20T08:49:29.182Z,82.34
2017-09-20T08:51:23.558Z,81.96
2017-09-20T08:52:23.553Z,81.71
2017-09-20T08:54:17.913Z,81.33
2017-09-20T08:55:17.900Z,81.43
2017-09-20T08:57:11.280Z,81.24
2017-09-20T08:58:11.263Z,80.85
2017-09-20T09:00:07.644Z,80.95
2017-09-20T09:01:07.627Z,80.95
2017-09-20T09:03:01.014Z,80.95
2017-09-20T09:04:00.998Z,80.66
2017-09-20T09:05:54.383Z,80.19
2017-09-20T09:06:54.360Z,79.99
2017-09-20T09:08:47.758Z,79.71
2017-09-20T09:09:47.729Z,79.75
2017-09-20T09:10:47.726Z,79.52
2017-09-20T09:11:47.726Z,79.71
2017-09-20T09:12:47.728Z,79.90
2017-09-20T09:13:47.727Z,79.52
2017-09-20T09:14:47.725Z,79.99
2017-09-20T09:15:47.723Z,79.90
2017-09-20T09:16:47.720Z,79.99
2017-09-20T09:17:47.725Z,80.38
2017-09-20T09:18:47.722Z,80.85
2017-09-20T09:19:47.767Z,80.28
2017-09-20T09:20:47.722Z,80.38
2017-09-20T09:21:47.720Z,80.28
2017-09-20T09:22:47.737Z,80.95
2017-09-20T09:23:47.716Z,80.85
2017-09-20T09:24:47.719Z,81.24
2017-09-20T09:25:47.719Z,80.95
2017-09-20T09:26:47.720Z,81.24
2017-09-20T09:27:47.717Z,81.33
2017-09-20T09:28:47.718Z,81.33
2017-09-20T09:29:47.720Z,81.24
2017-09-20T09:30:47.719Z,81.52
2017-09-20T09:31:47.713Z,81.14
2017-09-20T09:32:47.719Z,81.33
2017-09-20T09:33:47.716Z,81.52
2017-09-20T09:34:47.713Z,81.24
2017-09-20T09:35:47.714Z,81.43
2017-09-20T09:36:47.710Z,81.14
2017-09-20T09:37:47.712Z,81.33
2017-09-20T09:38:47.715Z,81.62
2017-09-20T09:39:47.712Z,81.90
2017-09-20T09:40:47.714Z,82.43
2017-09-20T09:41:47.708Z,82.24
2017-09-20T09:42:47.706Z,82.53
2017-09-20T09:43:47.709Z,82.43
2017-09-20T09:44:47.708Z,82.72
2017-09-20T09:45:47.706Z,82.24
2017-09-20T09:46:47.708Z,82.43
2017-09-20T09:47:47.709Z,82.91
2017-09-20T09:48:47.705Z,82.06
2017-09-20T09:49:47.706Z,82.34
2017-09-20T09:50:47.708Z,82.63
2017-09-20T09:51:47.706Z,82.34
2017-09-20T09:52:47.704Z,83.01
2017-09-20T09:53:47.700Z,83.29
2017-09-20T09:54:47.701Z,82.72
2017-09-20T09:55:47.700Z,82.63
2017-09-20T09:56:47.703Z,82.48
2017-09-20T09:57:47.699Z,82.29
2017-09-20T09:58:47.697Z,82.19
2017-09-20T09:59:47.696Z,81.81
2017-09-20T10:00:47.694Z,81.62
2017-09-20T10:01:47.693Z,82.86
2017-09-20T10:02:47.695Z,82.86
2017-09-20T10:03:47.692Z,82.09
2017-09-20T10:04:47.692Z,82.29
2017-09-20T10:05:47.687Z,82.29
2017-09-20T10:06:47.692Z,81.33
2017-09-20T10:07:47.689Z,81.90
2017-09-20T10:08:47.689Z,81.90
2017-09-20T10:09:47.690Z,81.81
2017-09-20T10:10:47.687Z,80.47
2017-09-20T10:11:47.687Z,80.47
2017-09-20T10:12:47.686Z,79.23
2017-09-20T10:13:47.683Z,80.38
2017-09-20T10:14:47.684Z,79.99
2017-09-20T10:15:47.684Z,80.85
2017-09-20T10:16:47.682Z,81.52
2017-09-20T10:17:47.680Z,81.24
2017-09-20T10:18:47.689Z,81.04
2017-09-20T10:19:47.679Z,81.43
2017-09-20T10:20:47.678Z,81.18
2017-09-20T10:21:47.675Z,80.57
2017-09-20T10:22:47.684Z,79.80
2017-09-20T10:23:47.678Z,80.09
2017-09-20T10:24:47.680Z,80.57
2017-09-20T10:25:47.675Z,80.99
2017-09-20T10:26:47.680Z,80.90
2017-09-20T10:27:47.673Z,80.99
2017-09-20T10:28:47.675Z,81.09
2017-09-20T10:29:47.673Z,81.47
2017-09-20T10:30:47.673Z,80.90
2017-09-20T10:31:47.673Z,81.27
2017-09-20T10:32:47.674Z,80.13
2017-09-20T10:33:47.676Z,80.41
2017-09-20T10:34:47.673Z,80.80
2017-09-20T10:35:47.668Z,80.99
2017-09-20T10:36:47.677Z,81.37
2017-09-20T10:37:47.672Z,81.27
2017-09-20T10:38:47.671Z,80.70
2017-09-20T10:39:47.671Z,80.32
2017-09-20T10:40:47.671Z,79.85
2017-09-20T10:41:47.671Z,80.41
2017-09-20T10:42:47.670Z,79.79
2017-09-20T10:43:47.670Z,78.83
2017-09-20T10:44:47.673Z,77.97
2017-09-20T10:45:47.671Z,76.64
2017-09-20T10:46:47.672Z,76.48
2017-09-20T10:47:47.679Z,74.66
2017-09-20T10:48:47.672Z,74.95
2017-09-20T10:49:47.675Z,74.22
2017-09-20T10:50:47.698Z,74.41
2017-09-20T10:51:47.672Z,72.79
2017-09-20T10:52:47.677Z,73.27
2017-09-20T10:53:47.673Z,72.31
2017-09-20T10:54:47.672Z,72.69
2017-09-20T10:55:47.677Z,72.12
2017-09-20T10:56:47.675Z,70.97
2017-09-20T10:57:47.674Z,70.24
2017-09-20T10:58:47.671Z,71.20
2017-09-20T10:59:47.683Z,70.68
2017-09-20T11:00:47.716Z,69.92
2017-09-20T11:01:47.681Z,70.59
2017-09-20T11:02:47.681Z,70.11
2017-09-20T11:03:47.681Z,69.92
2017-09-20T11:04:47.686Z,69.92
2017-09-20T11:05:47.693Z,70.97
2017-09-20T11:06:47.686Z,72.60
2017-09-20T11:07:47.688Z,71.93
2017-09-20T11:08:47.684Z,73.17
2017-09-20T11:09:47.690Z,72.79
2017-09-20T11:10:47.689Z,72.85
2017-09-20T11:11:47.692Z,72.79
2017-09-20T11:12:47.694Z,71.13
2017-09-20T11:13:47.699Z,71.89
2017-09-20T11:14:47.698Z,71.32
2017-09-20T11:15:47.698Z,71.93
2017-09-20T11:16:47.701Z,71.55
2017-09-20T11:17:47.701Z,71.45
2017-09-20T11:18:47.703Z,70.78
2017-09-20T11:19:47.705Z,70.91
2017-09-20T11:20:47.700Z,69.95
2017-09-20T11:21:47.705Z,69.48
2017-09-20T11:22:47.716Z,70.43
2017-09-20T11:23:47.710Z,69.95
2017-09-20T11:24:47.732Z,69.82
2017-09-20T11:25:47.714Z,69.25
2017-09-20T11:26:47.722Z,69.44
2017-09-20T11:27:49.325Z,70.17
2017-09-20T11:28:47.713Z,70.84
2017-09-20T11:29:47.721Z,70.94
2017-09-20T11:30:47.720Z,71.32
2017-09-20T11:31:49.325Z,70.87
2017-09-20T11:32:47.736Z,69.54
2017-09-20T11:33:47.764Z,69.60
2017-09-20T11:34:47.722Z,70.01
2017-09-20T11:35:47.723Z,70.94
2017-09-20T11:36:47.729Z,70.56
2017-09-20T11:37:47.749Z,71.51
2017-09-20T11:38:47.730Z,71.03
2017-09-20T11:39:47.728Z,70.36
2017-09-20T11:40:47.770Z,70.84
2017-09-20T11:41:47.727Z,70.11
2017-09-20T11:42:47.739Z,70.11
2017-09-20T11:43:47.744Z,70.01
2017-09-20T11:44:47.729Z,69.35
2017-09-20T11:45:47.729Z,69.92
2017-09-20T11:46:47.733Z,70.01
2017-09-20T11:47:47.730Z,70.50
2017-09-20T11:48:47.742Z,70.30
2017-09-20T11:49:47.741Z,69.92
2017-09-20T11:50:47.767Z,68.96
2017-09-20T11:51:47.751Z,68.77
2017-09-20T11:52:47.768Z,69.21
2017-09-20T11:53:47.744Z,69.41
2017-09-20T11:54:47.760Z,69.89
2017-09-20T11:55:47.774Z,69.89
2017-09-20T11:56:47.777Z,69.41
2017-09-20T11:57:47.741Z,69.25
2017-09-20T11:58:47.742Z,68.49
2017-09-20T11:59:48.330Z,68.20
2017-09-20T12:00:47.783Z,67.72
2017-09-20T12:01:47.743Z,68.68
2017-09-20T12:02:47.757Z,68.20
2017-09-20T12:03:47.754Z,66.76
2017-09-20T12:04:47.766Z,64.95
2017-09-20T12:05:48.344Z,63.89
2017-09-20T12:06:47.790Z,63.32
2017-09-20T12:07:47.758Z,63.13
2017-09-20T12:08:47.764Z,63.03
2017-09-20T12:09:47.754Z,63.60
2017-09-20T12:10:47.775Z,63.32
2017-09-20T12:11:55.388Z,64.56
2017-09-20T12:13:42.164Z,63.89
2017-09-20T12:14:42.142Z,64.37
2017-09-20T12:16:36.541Z,65.11
2017-09-20T12:17:36.531Z,65.11
2017-09-20T12:18:36.514Z,65.68
2017-09-20T12:19:36.552Z,66.54
2017-09-20T12:20:38.067Z,66.83
2017-09-20T12:21:36.536Z,67.11
2017-09-20T12:22:36.545Z,67.02
2017-09-20T12:23:36.518Z,67.14
2017-09-20T12:24:36.521Z,66.47
2017-09-20T12:25:36.528Z,66.00
2017-09-20T12:26:36.534Z,65.81
2017-09-20T12:27:45.179Z,65.90
2017-09-20T12:29:30.914Z,66.03
2017-09-20T12:30:30.899Z,66.03
2017-09-20T12:31:30.902Z,65.08
2017-09-20T12:32:30.902Z,65.36
2017-09-20T12:33:30.901Z,64.72
2017-09-20T12:34:30.913Z,64.63
2017-09-20T12:35:30.896Z,64.88
2017-09-20T12:36:30.901Z,65.55
2017-09-20T12:37:30.904Z,65.11
2017-09-20T12:38:30.905Z,65.58
2017-09-20T12:39:30.898Z,64.53
2017-09-20T12:40:30.900Z,64.53
2017-09-20T12:41:30.904Z,64.53
2017-09-20T12:42:30.944Z,63.96
2017-09-20T12:43:30.910Z,64.82
2017-09-20T12:44:30.910Z,64.59
2017-09-20T12:45:30.929Z,64.50
2017-09-20T12:46:30.910Z,64.79
2017-09-20T12:47:30.914Z,65.74
2017-09-20T12:48:30.910Z,65.65
2017-09-20T12:49:30.921Z,65.55
2017-09-20T12:50:30.917Z,65.26
2017-09-20T12:51:30.923Z,65.17
2017-09-20T12:52:30.926Z,65.84
2017-09-20T12:53:30.950Z,66.89
2017-09-20T12:54:30.922Z,67.56
2017-09-20T12:55:30.926Z,68.80
2017-09-20T12:56:30.929Z,69.35
2017-09-20T12:57:30.941Z,71.07
2017-09-20T12:58:30.961Z,72.69
2017-09-20T12:59:32.470Z,73.75
2017-09-20T13:00:30.958Z,73.94
2017-09-20T13:01:30.936Z,74.61
2017-09-20T13:02:30.973Z,75.56
2017-09-20T13:03:30.939Z,75.09
2017-09-20T13:04:31.471Z,74.32
2017-09-20T13:05:40.575Z,73.84
2017-09-20T13:07:24.353Z,73.46
2017-09-20T13:08:24.363Z,74.32
2017-09-20T13:09:24.344Z,75.66
2017-09-20T13:10:24.354Z,76.81
2017-09-20T13:11:24.348Z,76.52
2017-09-20T13:12:24.343Z,74.80
2017-09-20T13:13:24.367Z,74.51
2017-09-20T13:14:24.356Z,73.36
2017-09-20T13:15:24.387Z,71.93
2017-09-20T13:16:24.351Z,71.20
2017-09-20T13:17:24.353Z,69.67
2017-09-20T13:18:24.884Z,69.38